Flight Track Log - Related Links

Times and Time Zones

All times are in EDT time to prevent confusion due to time zone crossing. See the EJA619 flight status page for this flight to view local times or setup timezone preferences in your user account.

Time Position Orientation Groundspeed Altitude Reporting Facility
EDT Latitude Longitude Course Direction KTS MPH feet Rate Location/Type
Tue 11:26:04 AM 43.5667 -71.4500 246° West 182 209 2,100  Level KA90
Tue 11:27:19 AM 43.5369 -71.5408 246° West 227 261 5,700 2,978 Climbing Boston Center
Tue 11:28:19 AM 43.5064 -71.6386 247° West 249 287 8,800 2,950 Climbing Boston Center
Tue 11:29:19 AM 43.4736 -71.7219 242° Southwest 266 306 11,600 2,850 Climbing Boston Center
Tue 11:30:19 AM 43.4344 -71.8283 243° Southwest 276 318 14,500 2,700 Climbing Boston Center
Tue 11:31:19 AM 43.4017 -71.9172 243° Southwest 289 333 17,000 2,400 Climbing Boston Center
Tue 11:32:19 AM 43.3644 -72.0175 243° Southwest 294 338 19,300 2,300 Climbing Boston Center
Tue 11:33:19 AM 43.3233 -72.1233 242° Southwest 301 346 21,600 2,000 Climbing Boston Center
Tue 11:34:19 AM 43.2797 -72.2347 242° Southwest 316 364 23,300 1,750 Climbing Boston Center
Tue 11:35:19 AM 43.2361 -72.3517 243° Southwest 329 379 25,100 4,350 Climbing Boston Center
Tue 11:36:19 AM 43.1903 -72.4686 242° Southwest 340 391 32,000 1,800 Climbing Boston Center
Tue 11:37:19 AM 43.1464 -72.5822 242° Southwest 345 397 28,700 -800 Descending Boston Center
Tue 11:38:19 AM 43.0942 -72.7075 240° Southwest 345 397 30,400 1,400 Climbing Boston Center
Tue 11:39:19 AM 43.0458 -72.8264 241° Southwest 351 404 31,500 800 Climbing Boston Center
Tue 11:40:19 AM 42.9953 -72.9567 242° Southwest 368 423 32,000 250 Climbing Boston Center
Tue 11:41:19 AM 42.9531 -73.0811 245° Southwest 380 437 32,000  Level Boston Center
Tue 11:42:19 AM 42.8981 -73.2167 241° Southwest 402 463 32,000  Level Boston Center
Tue 11:43:19 AM 42.8406 -73.3575 241° Southwest 413 475 32,000  Level Boston Center
Tue 11:44:19 AM 42.7853 -73.4925 241° Southwest 413 475 32,000  Level Boston Center
Tue 11:45:19 AM 42.7253 -73.6469 242° Southwest 418 481 32,000  Level Boston Center
Tue 11:46:19 AM 42.6828 -73.7392 238° Southwest 418 481 32,000 -600 Level Boston Center
Tue 11:47:19 AM 42.6181 -73.9017 242° Southwest 413 475 30,800 -1,650 Descending Boston Center
Tue 11:48:19 AM 42.5578 -74.0553 242° Southwest 413 475 28,700 -2,100 Descending Boston Center
Tue 11:49:19 AM 42.5014 -74.1917 241° Southwest 418 481 26,600 -2,200 Descending Boston Center
Tue 11:50:19 AM 42.4431 -74.3308 240° Southwest 418 481 24,300 -1,300 Descending Boston Center
Tue 11:51:19 AM 42.3931 -74.4503 240° Southwest 418 481 24,000 -150 Descending Boston Center
Tue 11:52:19 AM 42.3364 -74.5803 240° Southwest 413 475 24,000  Level Boston Center
Tue 11:53:19 AM 42.2817 -74.7133 241° Southwest 408 470 24,000  Level Boston Center
Tue 11:54:19 AM 42.2292 -74.8403 241° Southwest 408 470 24,000  Level Boston Center
Tue 11:55:19 AM 42.1681 -74.9639 236° Southwest 408 470 24,000 -150 Level Boston Center
Tue 11:56:19 AM 42.0744 -75.0442 212° Southwest 395 455 23,700 -1,055 Descending Boston Center
Tue 11:58:04 AM 41.8953 -75.1928 212° Southwest 417 480 21,100 -1,337 Descending New York Center
Tue 11:59:05 AM 41.7986 -75.2672 210° Southwest 417 480 20,000 -1,059 Descending New York Center
Tue 12:00:03 PM 41.7061 -75.3442 212° Southwest 405 466 19,000 -1,729 Descending New York Center
Tue 12:01:03 PM 41.6203 -75.4133 211° Southwest 385 443 16,600 -2,380 Descending New York Center
Tue 12:02:04 PM 41.5428 -75.4772 212° Southwest 379 436 14,200 -1,567 Descending New York Center
Tue 12:04:03 PM 41.3669 -75.6031 208° Southwest 344 396 11,900 -762 Descending New York Center
Tue 12:05:05 PM 41.2681 -75.6236 189° South 351 404 11,900  Level New York Center
Tue 12:06:05 PM 41.1717 -75.6386 187° South 356 410 11,900  Level New York Center
Tue 12:07:03 PM 41.0717 -75.6425 182° South 361 415 11,900  Level New York Center
Tue 12:08:03 PM 40.9833 -75.6114 165° South 366 421 11,900  Level New York Center
Tue 12:09:03 PM 40.8825 -75.5769 166° South 372 428 11,900  Level New York Center
Tue 12:10:04 PM 40.7756 -75.5419 166° South 372 428 11,900  Level New York Center
Tue 12:11:05 PM 40.6872 -75.5111 165° South 372 428 11,900  Level New York Center
Tue 12:12:03 PM 40.5867 -75.4769 166° South 372 428 11,900 -712 Level New York Center
Tue 12:13:03 PM 40.4794 -75.4422 166° South 367 422 10,500 -1,686 Descending New York Center
Tue 12:14:04 PM 40.4044 -75.3936 154° Southeast 338 389 8,500 -2,132 Descending New York Center
Tue 12:15:04 PM 40.3356 -75.3400 149° Southeast 304 350 6,200 -1,289 Descending New York Center
Tue 12:16:05 PM 40.2792 -75.2925 147° Southeast 275 316 5,900 -149 Descending New York Center
Tue 12:17:05 PM 40.2247 -75.2456 147° Southeast 243 280 5,900 100 Level New York Center
Tue 12:18:05 PM 40.1636 -75.2036 152° Southeast 237 273 6,100 101 Climbing New York Center
Tue 12:19:04 PM 40.1167 -75.1333 131° Southeast 233 268 6,100 -202 Level Philadelphia TRACON
Tue 12:20:04 PM 40.0667 -75.0833 143° Southeast 230 265 5,700 -1,048 Descending Philadelphia TRACON
Tue 12:21:10 PM 40.0167 -75.0500 153° Southeast 205 236 3,900 -1,286 Descending Philadelphia TRACON
Tue 12:22:10 PM 39.9500 -75.0333 169° South 194 223 3,000 -750 Descending Philadelphia TRACON
Tue 12:23:10 PM 39.9167 -75.0833 229° Southwest 186 214 2,400 -850 Descending Philadelphia TRACON
Tue 12:24:10 PM 39.9000 -75.1333 247° West 167 192 1,300 -900 Descending Philadelphia TRACON
Tue 12:25:10 PM 39.8833 -75.1833 247° West 111 128 600 -700 Descending Philadelphia TRACON
Tue 12:27:00 PM 39.8667 -75.2333 210° Southwest  Level FlightAware Approximate
Tue 12:34:00 PM 39.8722 -75.2409 210° Southwest  Level Estimated

Login

Don't have an account? Register now (free) for customized features, flight alerts, and more!